createdAt,value
2023-02-11T00:01:26.075Z,1.73
2023-02-11T00:03:55.807Z,1.74
2023-02-11T00:06:25.799Z,1.77
2023-02-11T00:08:54.107Z,1.67
2023-02-11T00:11:25.677Z,1.64
2023-02-11T00:13:55.363Z,1.67
2023-02-11T00:16:24.120Z,1.80
2023-02-11T00:18:53.300Z,1.76
2023-02-11T00:21:26.046Z,1.81
2023-02-11T00:23:55.032Z,1.88
2023-02-11T00:26:25.061Z,1.79
2023-02-11T00:28:57.233Z,1.74
2023-02-11T00:31:26.420Z,1.69
2023-02-11T00:33:55.035Z,1.87
2023-02-11T00:36:25.276Z,1.66
2023-02-11T00:38:55.327Z,1.92
2023-02-11T00:41:24.352Z,1.86
2023-02-11T00:43:52.699Z,1.84
2023-02-11T00:46:22.525Z,1.70
2023-02-11T00:48:51.967Z,1.84
2023-02-11T00:51:20.408Z,1.80
2023-02-11T00:53:52.416Z,1.80
2023-02-11T00:56:20.590Z,1.67
2023-02-11T00:58:49.255Z,1.78
2023-02-11T01:01:17.291Z,1.65
2023-02-11T01:03:46.808Z,1.71
2023-02-11T01:06:17.715Z,1.53
2023-02-11T01:08:46.111Z,1.63
2023-02-11T01:11:16.931Z,1.59
2023-02-11T01:13:45.716Z,1.52
2023-02-11T01:16:15.049Z,1.60
2023-02-11T01:18:44.562Z,1.47
2023-02-11T01:21:14.981Z,1.54
2023-02-11T01:23:43.941Z,1.62
2023-02-11T01:26:12.285Z,1.70
2023-02-11T01:28:40.494Z,1.71
2023-02-11T01:31:08.753Z,1.80
2023-02-11T01:33:40.047Z,1.66
2023-02-11T01:36:08.833Z,1.87
2023-02-11T01:38:40.244Z,1.83
2023-02-11T01:41:10.885Z,1.94
2023-02-11T01:43:43.664Z,1.78
2023-02-11T01:46:36.604Z,1.89
2023-02-11T01:49:09.275Z,1.88
2023-02-11T01:51:41.055Z,1.99
2023-02-11T01:54:30.571Z,2.00
2023-02-11T01:57:18.334Z,1.99
2023-02-11T01:59:53.795Z,2.07
2023-02-11T02:02:26.561Z,1.90
2023-02-11T02:05:01.154Z,1.91
2023-02-11T02:07:35.612Z,1.93
2023-02-11T02:10:12.915Z,1.99
2023-02-11T02:12:43.692Z,1.97
2023-02-11T02:15:24.451Z,1.96
2023-02-11T02:18:02.681Z,1.77
2023-02-11T02:21:15.237Z,1.99
2023-02-11T02:24:25.288Z,1.92
2023-02-11T02:27:27.604Z,1.99
2023-02-11T02:30:22.247Z,1.97
2023-02-11T02:33:02.220Z,2.00
2023-02-11T02:35:43.955Z,2.07
2023-02-11T02:38:17.900Z,2.09
2023-02-11T02:40:50.943Z,2.27
2023-02-11T02:43:20.746Z,2.21
2023-02-11T02:45:49.264Z,2.17
2023-02-11T02:48:27.946Z,2.21
2023-02-11T02:51:06.705Z,2.10
2023-02-11T02:53:53.011Z,2.17
2023-02-11T02:56:32.960Z,2.21
2023-02-11T02:59:25.392Z,2.23
2023-02-11T03:02:05.125Z,2.26
2023-02-11T03:04:42.410Z,2.14
2023-02-11T03:07:18.902Z,2.03
2023-02-11T03:09:53.490Z,2.01
2023-02-11T03:12:23.714Z,1.84
2023-02-11T03:14:54.153Z,2.06
2023-02-11T03:17:25.317Z,2.03
2023-02-11T03:19:56.430Z,1.85
2023-02-11T03:22:28.789Z,2.04
2023-02-11T03:24:57.801Z,2.11
2023-02-11T03:27:30.263Z,2.14
2023-02-11T03:30:06.959Z,2.11
2023-02-11T03:32:40.067Z,2.15
2023-02-11T03:35:16.081Z,2.23
2023-02-11T03:37:51.809Z,2.20
2023-02-11T03:40:23.611Z,2.04
2023-02-11T03:42:55.997Z,2.12
2023-02-11T03:45:26.261Z,2.18
2023-02-11T03:47:59.486Z,2.16
2023-02-11T03:50:31.650Z,2.05
2023-02-11T03:53:02.523Z,2.00
2023-02-11T03:55:34.561Z,2.09
2023-02-11T03:58:03.058Z,2.03
2023-02-11T04:00:32.657Z,2.17
2023-02-11T04:03:00.904Z,2.15
2023-02-11T04:05:32.199Z,2.26
2023-02-11T04:08:02.024Z,2.34
2023-02-11T04:10:30.265Z,2.34
2023-02-11T04:12:59.039Z,2.13
2023-02-11T04:15:27.970Z,2.32
2023-02-11T04:17:57.235Z,2.26
2023-02-11T04:20:25.643Z,2.33
2023-02-11T04:22:55.150Z,2.40
2023-02-11T04:25:23.312Z,2.33
2023-02-11T04:27:52.518Z,2.34
2023-02-11T04:30:20.890Z,2.48
2023-02-11T04:32:49.224Z,2.45
2023-02-11T04:35:17.500Z,2.45
2023-02-11T04:37:45.661Z,2.39
2023-02-11T04:40:15.266Z,2.49
2023-02-11T04:42:43.577Z,2.42
2023-02-11T04:45:12.103Z,2.34
2023-02-11T04:47:40.680Z,2.34
2023-02-11T04:50:09.001Z,2.22
2023-02-11T04:52:37.073Z,2.18
2023-02-11T04:55:05.683Z,2.06
2023-02-11T04:57:35.724Z,2.07
2023-02-11T05:00:06.100Z,2.20
2023-02-11T05:02:34.593Z,2.19
2023-02-11T05:05:02.923Z,2.08
2023-02-11T05:07:31.014Z,2.18
2023-02-11T05:09:59.093Z,2.19
2023-02-11T05:12:27.319Z,2.08
2023-02-11T05:14:57.439Z,2.02
2023-02-11T05:17:25.848Z,2.08
2023-02-11T05:19:54.029Z,1.91
2023-02-11T05:22:22.571Z,2.03
2023-02-11T05:24:53.449Z,2.05
2023-02-11T05:27:22.008Z,2.11
2023-02-11T05:29:50.133Z,2.12
2023-02-11T05:32:19.712Z,2.03
2023-02-11T05:34:48.096Z,2.11
2023-02-11T05:37:16.626Z,2.11
2023-02-11T05:39:44.926Z,1.95
2023-02-11T05:42:15.288Z,2.12
2023-02-11T05:44:43.727Z,2.09
2023-02-11T05:47:13.394Z,2.12
2023-02-11T05:49:45.342Z,2.10
2023-02-11T05:52:17.168Z,1.93
2023-02-11T05:54:48.364Z,2.10
2023-02-11T05:57:18.793Z,2.14
2023-02-11T05:59:46.951Z,2.10
2023-02-11T06:02:15.043Z,2.18
2023-02-11T06:04:44.822Z,2.17
2023-02-11T06:07:13.503Z,2.16
2023-02-11T06:09:41.938Z,2.37
2023-02-11T06:12:10.108Z,2.31
2023-02-11T06:14:38.671Z,2.27
2023-02-11T06:17:07.354Z,2.16
2023-02-11T06:19:36.393Z,2.21
2023-02-11T06:22:06.745Z,2.19
2023-02-11T06:24:54.960Z,1.99
2023-02-11T06:27:24.748Z,2.26
2023-02-11T06:29:53.833Z,2.30
2023-02-11T06:32:42.160Z,2.33
2023-02-11T06:35:12.283Z,2.27
2023-02-11T06:37:44.542Z,2.39
2023-02-11T06:40:13.708Z,2.23
2023-02-11T06:42:42.080Z,2.28
2023-02-11T06:45:11.912Z,2.10
2023-02-11T06:47:40.999Z,2.09
2023-02-11T06:50:12.339Z,2.01
2023-02-11T06:52:40.576Z,1.88
2023-02-11T06:55:11.475Z,1.88
2023-02-11T06:57:39.765Z,1.95
2023-02-11T07:00:09.107Z,1.87
2023-02-11T07:02:37.995Z,1.91
2023-02-11T07:05:08.260Z,1.86
2023-02-11T07:07:36.572Z,1.89
2023-02-11T07:10:06.061Z,1.86
2023-02-11T07:12:36.336Z,1.85
2023-02-11T07:15:04.918Z,1.91
2023-02-11T07:17:33.030Z,1.94
2023-02-11T07:20:01.445Z,2.03
2023-02-11T07:22:31.115Z,2.08
2023-02-11T07:24:59.759Z,2.26
2023-02-11T07:27:27.895Z,2.13
2023-02-11T07:29:57.408Z,2.24
2023-02-11T07:32:25.749Z,2.41
2023-02-11T07:34:54.007Z,2.45
2023-02-11T07:37:23.745Z,2.42
2023-02-11T07:39:51.965Z,2.21
2023-02-11T07:42:20.572Z,2.31
2023-02-11T07:44:50.516Z,2.34
2023-02-11T07:47:20.595Z,2.44
2023-02-11T07:49:49.126Z,2.42
2023-02-11T07:52:17.160Z,2.39
2023-02-11T07:54:45.302Z,2.39
2023-02-11T07:57:13.948Z,2.42
2023-02-11T07:59:42.006Z,2.56
2023-02-11T08:02:11.379Z,2.54
2023-02-11T08:04:41.227Z,2.64
2023-02-11T08:07:09.417Z,2.65
2023-02-11T08:09:38.439Z,2.72
2023-02-11T08:12:07.398Z,2.61
2023-02-11T08:14:35.587Z,2.66
2023-02-11T08:17:03.666Z,2.87
2023-02-11T08:19:34.095Z,2.81
2023-02-11T08:22:05.137Z,2.84
2023-02-11T08:24:33.255Z,2.82
2023-02-11T08:27:01.438Z,2.78
2023-02-11T08:29:30.548Z,2.73
2023-02-11T08:31:59.110Z,2.84
2023-02-11T08:34:27.558Z,2.79
2023-02-11T08:36:56.106Z,2.73
2023-02-11T08:39:25.634Z,2.65
2023-02-11T08:41:58.483Z,2.68
2023-02-11T08:44:27.523Z,2.51
2023-02-11T08:46:55.839Z,2.57
2023-02-11T08:49:24.249Z,2.63
2023-02-11T08:51:52.846Z,2.60
2023-02-11T08:54:21.253Z,2.70
2023-02-11T08:56:53.239Z,2.80
2023-02-11T08:59:21.831Z,2.79
2023-02-11T09:01:51.404Z,2.84
2023-02-11T09:04:19.894Z,2.79
2023-02-11T09:06:48.033Z,2.82
2023-02-11T09:09:18.509Z,2.99
2023-02-11T09:11:46.993Z,3.03
2023-02-11T09:14:22.226Z,2.95
2023-02-11T09:16:51.346Z,3.04
2023-02-11T09:19:20.037Z,3.09
2023-02-11T09:21:48.521Z,3.10
2023-02-11T09:24:16.867Z,3.16
2023-02-11T09:26:45.125Z,3.25
2023-02-11T09:29:13.501Z,3.27
2023-02-11T09:31:43.063Z,3.31
2023-02-11T09:34:13.872Z,3.34
2023-02-11T09:36:42.430Z,3.36
2023-02-11T09:39:14.137Z,3.31
2023-02-11T09:41:56.675Z,3.50
2023-02-11T09:44:26.935Z,3.47
2023-02-11T09:46:59.767Z,3.31
2023-02-11T09:49:36.557Z,3.43
2023-02-11T09:52:07.681Z,3.54
2023-02-11T09:54:41.326Z,3.44
2023-02-11T09:57:27.917Z,3.41
2023-02-11T09:59:58.007Z,3.26
2023-02-11T10:02:35.454Z,3.18
2023-02-11T10:05:28.273Z,3.42
2023-02-11T10:08:10.039Z,3.44
2023-02-11T10:10:49.019Z,3.38
2023-02-11T10:13:46.013Z,3.24
2023-02-11T10:16:30.365Z,3.44
2023-02-11T10:19:14.108Z,3.42
2023-02-11T10:21:51.779Z,3.39
2023-02-11T10:24:21.367Z,3.21
2023-02-11T10:26:50.652Z,3.35
2023-02-11T10:29:32.621Z,3.35
2023-02-11T10:32:08.992Z,3.48
2023-02-11T10:34:46.059Z,3.29
2023-02-11T10:37:15.310Z,3.24
2023-02-11T10:39:43.857Z,3.38
2023-02-11T10:42:15.255Z,3.40
2023-02-11T10:44:51.261Z,3.41
2023-02-11T10:47:23.405Z,3.39
2023-02-11T10:49:54.362Z,3.34
2023-02-11T10:52:25.212Z,3.46
2023-02-11T10:55:07.625Z,3.56
2023-02-11T10:57:38.681Z,3.74
2023-02-11T11:00:22.605Z,3.91
2023-02-11T11:02:57.160Z,3.81
2023-02-11T11:05:32.634Z,3.92
2023-02-11T11:08:03.493Z,3.90
2023-02-11T11:10:43.303Z,3.97
2023-02-11T11:13:29.687Z,3.93
2023-02-11T11:16:23.924Z,3.80
2023-02-11T11:18:55.064Z,3.94
2023-02-11T11:21:26.718Z,3.87
2023-02-11T11:23:58.639Z,3.93
2023-02-11T11:26:29.407Z,3.90
2023-02-11T11:29:03.996Z,3.94
2023-02-11T11:31:36.459Z,3.89
2023-02-11T11:34:20.328Z,3.84
2023-02-11T11:36:51.996Z,3.68
2023-02-11T11:39:24.219Z,3.79
2023-02-11T11:41:54.905Z,3.77
2023-02-11T11:44:29.075Z,3.78
2023-02-11T11:47:20.943Z,3.82
2023-02-11T11:49:58.291Z,3.87
2023-02-11T11:52:37.667Z,3.87
2023-02-11T11:55:14.873Z,3.91
2023-02-11T11:57:43.872Z,3.85
2023-02-11T12:00:21.010Z,3.96
2023-02-11T12:03:30.179Z,3.94
2023-02-11T12:06:13.157Z,4.17
2023-02-11T12:08:51.012Z,4.27
2023-02-11T12:11:27.485Z,4.31
2023-02-11T12:14:14.840Z,4.36
2023-02-11T12:16:57.846Z,4.25
2023-02-11T12:19:50.849Z,4.50
2023-02-11T12:22:34.902Z,4.53
2023-02-11T12:25:21.326Z,4.49
2023-02-11T12:27:54.361Z,4.60
2023-02-11T12:30:50.078Z,4.73
2023-02-11T12:33:34.127Z,4.52
2023-02-11T12:36:11.085Z,4.65
2023-02-11T12:39:06.207Z,4.65
2023-02-11T12:42:19.875Z,4.71
2023-02-11T12:45:09.122Z,4.72
2023-02-11T12:47:51.520Z,4.72
2023-02-11T12:50:27.969Z,4.83
2023-02-11T12:53:18.700Z,4.79
2023-02-11T12:55:50.555Z,4.85
2023-02-11T12:58:35.578Z,4.83
2023-02-11T13:01:18.177Z,4.73
2023-02-11T13:03:51.263Z,4.78
2023-02-11T13:06:23.644Z,4.93
2023-02-11T13:08:55.947Z,5.07
2023-02-11T13:11:27.503Z,4.95
2023-02-11T13:14:02.083Z,5.00
2023-02-11T13:16:37.931Z,5.11
2023-02-11T13:19:19.695Z,5.20
2023-02-11T13:21:57.107Z,4.97
2023-02-11T13:24:35.790Z,5.10
2023-02-11T13:27:12.954Z,5.22
2023-02-11T13:30:11.156Z,5.42
2023-02-11T13:33:04.150Z,5.44
2023-02-11T13:35:35.206Z,5.42
2023-02-11T13:38:05.917Z,5.29
2023-02-11T13:40:36.820Z,5.11
2023-02-11T13:43:20.578Z,5.26
2023-02-11T13:45:52.812Z,5.33
2023-02-11T13:48:24.757Z,5.47
2023-02-11T13:50:57.041Z,5.30
2023-02-11T13:53:28.491Z,5.40
2023-02-11T13:56:09.061Z,5.55
2023-02-11T13:58:40.174Z,5.42
2023-02-11T14:01:10.239Z,5.46
2023-02-11T14:03:57.418Z,5.50
2023-02-11T14:06:47.381Z,5.47
2023-02-11T14:09:37.395Z,5.59
2023-02-11T14:12:35.357Z,5.66
2023-02-11T14:15:20.565Z,5.52
2023-02-11T14:17:50.380Z,5.52
2023-02-11T14:20:43.497Z,5.84
2023-02-11T14:23:29.133Z,5.64
2023-02-11T14:26:23.585Z,5.83
2023-02-11T14:29:01.315Z,5.85
2023-02-11T14:31:36.835Z,5.64
2023-02-11T14:37:10.944Z,5.85
2023-02-11T14:39:54.799Z,5.57
2023-02-11T14:42:27.291Z,5.63
2023-02-11T14:44:57.810Z,5.58
2023-02-11T14:47:32.055Z,5.66
2023-02-11T14:50:00.216Z,5.77
2023-02-11T14:52:33.618Z,5.80
2023-02-11T14:55:15.166Z,5.58
2023-02-11T14:57:46.002Z,5.63
2023-02-11T15:00:19.861Z,5.69
2023-02-11T15:02:50.088Z,5.69
2023-02-11T15:05:26.274Z,5.87
2023-02-11T15:07:59.041Z,5.63
2023-02-11T15:10:32.034Z,5.69
2023-02-11T15:13:03.251Z,5.73
2023-02-11T15:15:34.780Z,5.62
2023-02-11T15:18:06.165Z,5.60
2023-02-11T15:20:36.052Z,5.69
2023-02-11T15:23:09.497Z,5.77
2023-02-11T15:25:44.546Z,5.65
2023-02-11T15:28:22.868Z,5.69
2023-02-11T15:30:58.431Z,5.87
2023-02-11T15:33:30.166Z,5.92
2023-02-11T15:35:59.152Z,5.88
2023-02-11T15:38:30.101Z,5.94
2023-02-11T15:41:02.304Z,5.87
2023-02-11T15:43:44.575Z,5.95
2023-02-11T15:46:18.186Z,5.86
2023-02-11T15:48:49.154Z,5.75
2023-02-11T15:51:22.432Z,5.65
2023-02-11T15:53:57.126Z,5.72
2023-02-11T15:56:29.884Z,5.67
2023-02-11T15:59:01.293Z,5.60
2023-02-11T16:01:39.497Z,5.61
2023-02-11T16:04:09.109Z,5.52
2023-02-11T16:06:40.421Z,5.71
2023-02-11T16:09:26.181Z,5.81
2023-02-11T16:12:00.129Z,5.71
2023-02-11T16:14:34.472Z,5.71
2023-02-11T16:17:06.312Z,5.54
2023-02-11T16:19:37.037Z,5.50
2023-02-11T16:22:10.599Z,5.42
2023-02-11T16:24:40.873Z,5.45
2023-02-11T16:27:22.791Z,5.42
2023-02-11T16:29:52.450Z,5.39
2023-02-11T16:32:21.851Z,5.49
2023-02-11T16:34:50.361Z,5.50
2023-02-11T16:37:20.515Z,5.38
2023-02-11T16:39:50.306Z,5.43
2023-02-11T16:42:18.647Z,5.49
2023-02-11T16:44:48.553Z,5.56
2023-02-11T16:47:21.487Z,5.46
2023-02-11T16:49:50.259Z,5.63
2023-02-11T16:52:19.631Z,5.51
2023-02-11T16:54:49.972Z,5.43
2023-02-11T16:57:19.808Z,5.51
2023-02-11T16:59:48.921Z,5.49
2023-02-11T17:02:23.608Z,5.43
2023-02-11T17:04:53.982Z,5.51
2023-02-11T17:07:22.506Z,5.59
2023-02-11T17:09:53.142Z,5.61
2023-02-11T17:12:21.753Z,5.66
2023-02-11T17:14:49.946Z,5.66
2023-02-11T17:17:19.797Z,5.73
2023-02-11T17:19:48.638Z,5.66
2023-02-11T17:22:17.072Z,5.73
2023-02-11T17:24:45.250Z,5.61
2023-02-11T17:27:15.610Z,5.77
2023-02-11T17:29:43.957Z,5.77
2023-02-11T17:32:13.733Z,5.72
2023-02-11T17:34:42.196Z,5.56
2023-02-11T17:37:10.685Z,5.63
2023-02-11T17:39:40.747Z,5.67
2023-02-11T17:42:09.582Z,5.60
2023-02-11T17:44:39.610Z,5.67
2023-02-11T17:47:09.466Z,5.62
2023-02-11T17:49:37.747Z,5.83
2023-02-11T17:52:06.407Z,5.92
2023-02-11T17:54:34.860Z,5.89
2023-02-11T17:57:03.544Z,5.72
2023-02-11T17:59:35.632Z,5.81
2023-02-11T18:02:06.580Z,5.94
2023-02-11T18:04:35.092Z,5.94
2023-02-11T18:07:03.325Z,5.80
2023-02-11T18:09:31.473Z,5.92
2023-02-11T18:11:59.752Z,5.68
2023-02-11T18:14:28.276Z,5.80
2023-02-11T18:16:56.725Z,5.86
2023-02-11T18:19:26.694Z,5.72
2023-02-11T18:21:58.055Z,5.83
2023-02-11T18:24:28.438Z,5.91
2023-02-11T18:26:56.764Z,5.91
2023-02-11T18:29:25.045Z,5.97
2023-02-11T18:31:56.801Z,5.98
2023-02-11T18:34:27.571Z,6.00
2023-02-11T18:36:55.871Z,6.00
2023-02-11T18:39:26.585Z,6.09
2023-02-11T18:41:58.955Z,6.13
2023-02-11T18:44:27.783Z,6.13
2023-02-11T18:46:56.368Z,6.19
2023-02-11T18:49:24.544Z,6.24
2023-02-11T18:51:54.289Z,6.21
2023-02-11T18:54:22.983Z,6.16
2023-02-11T18:56:51.969Z,6.11
2023-02-11T18:59:20.135Z,6.06
2023-02-11T19:01:48.323Z,5.92
2023-02-11T19:04:20.257Z,6.02
2023-02-11T19:06:50.656Z,6.03
2023-02-11T19:09:21.290Z,6.02
2023-02-11T19:11:50.409Z,5.91
2023-02-11T19:14:22.096Z,5.96
2023-02-11T19:16:51.781Z,6.02
2023-02-11T19:19:21.270Z,6.14
2023-02-11T19:21:49.374Z,6.02
2023-02-11T19:24:20.334Z,6.01
2023-02-11T19:26:49.606Z,6.18
2023-02-11T19:29:18.335Z,6.07
2023-02-11T19:31:47.790Z,6.09
2023-02-11T19:34:17.571Z,5.91
2023-02-11T19:36:45.934Z,5.86
2023-02-11T19:39:15.627Z,5.97
2023-02-11T19:41:45.255Z,6.11
2023-02-11T19:44:16.315Z,6.05
2023-02-11T19:46:44.727Z,6.09
2023-02-11T19:49:16.777Z,6.16
2023-02-11T19:51:45.299Z,6.14
2023-02-11T19:54:16.263Z,6.11
2023-02-11T19:56:47.489Z,6.06
2023-02-11T19:59:16.966Z,6.05
2023-02-11T20:01:47.799Z,6.05
2023-02-11T20:04:17.273Z,6.04
2023-02-11T20:06:48.390Z,6.01
2023-02-11T20:09:16.917Z,5.94
2023-02-11T20:11:46.737Z,5.93
2023-02-11T20:14:16.188Z,5.86
2023-02-11T20:16:49.838Z,5.80
2023-02-11T20:19:20.602Z,5.74
2023-02-11T20:21:50.563Z,5.74
2023-02-11T20:24:20.637Z,5.77
2023-02-11T20:26:51.849Z,5.78
2023-02-11T20:29:22.666Z,5.90
2023-02-11T20:31:52.039Z,5.96
2023-02-11T20:34:22.277Z,5.91
2023-02-11T20:36:52.959Z,5.96
2023-02-11T20:39:22.762Z,5.94
2023-02-11T20:41:54.148Z,6.00
2023-02-11T20:44:23.335Z,5.92
2023-02-11T20:46:54.341Z,5.94
2023-02-11T20:49:25.207Z,5.95
2023-02-11T20:51:55.620Z,5.92
2023-02-11T20:54:25.244Z,5.91
2023-02-11T20:56:57.065Z,5.96
2023-02-11T20:59:26.560Z,6.01
2023-02-11T21:01:59.516Z,6.11
2023-02-11T21:04:30.044Z,5.99
2023-02-11T21:07:00.320Z,6.08
2023-02-11T21:09:31.348Z,6.13
2023-02-11T21:12:01.452Z,6.14
2023-02-11T21:14:30.668Z,6.16
2023-02-11T21:16:59.320Z,6.11
2023-02-11T21:19:27.883Z,5.96
2023-02-11T21:21:57.486Z,5.98
2023-02-11T21:24:26.038Z,5.96
2023-02-11T21:26:54.154Z,5.78
2023-02-11T21:29:24.062Z,5.79
2023-02-11T21:31:53.234Z,5.79
2023-02-11T21:34:21.743Z,5.78
2023-02-11T21:36:51.367Z,5.70
2023-02-11T21:39:19.444Z,5.75
2023-02-11T21:41:47.788Z,5.78
2023-02-11T21:44:15.940Z,5.83
2023-02-11T21:46:46.049Z,5.86
2023-02-11T21:49:14.683Z,6.00
2023-02-11T21:51:43.011Z,5.98
2023-02-11T21:54:12.953Z,6.09
2023-02-11T21:56:41.247Z,5.97
2023-02-11T21:59:09.379Z,5.97
2023-02-11T22:01:37.899Z,5.98
2023-02-11T22:04:08.081Z,5.95
2023-02-11T22:06:36.733Z,5.95
2023-02-11T22:09:11.358Z,5.78
2023-02-11T22:11:39.678Z,5.37
2023-02-11T22:14:08.112Z,5.44
2023-02-11T22:16:36.406Z,5.51
2023-02-11T22:19:06.197Z,5.49
2023-02-11T22:21:35.972Z,5.56
2023-02-11T22:24:04.617Z,5.58
2023-02-11T22:26:32.921Z,5.68
2023-02-11T22:29:01.357Z,5.71
2023-02-11T22:31:32.386Z,5.79
2023-02-11T22:34:02.040Z,5.82
2023-02-11T22:36:32.891Z,5.80
2023-02-11T22:39:04.064Z,5.63
2023-02-11T22:41:32.535Z,5.78
2023-02-11T22:44:00.616Z,5.87
2023-02-11T22:46:28.666Z,5.78
2023-02-11T22:48:57.457Z,5.92
2023-02-11T22:51:26.883Z,5.99
2023-02-11T22:53:57.403Z,5.91
2023-02-11T22:56:28.533Z,5.96
2023-02-11T22:58:58.643Z,5.89
2023-02-11T23:01:27.512Z,5.98
2023-02-11T23:03:56.006Z,5.94
2023-02-11T23:06:24.454Z,6.04
2023-02-11T23:08:53.114Z,6.03
2023-02-11T23:11:23.808Z,6.05
2023-02-11T23:13:54.813Z,6.00
2023-02-11T23:16:25.886Z,6.08
2023-02-11T23:18:55.723Z,6.08
2023-02-11T23:21:27.884Z,6.11
2023-02-11T23:23:57.661Z,6.08
2023-02-11T23:26:26.639Z,6.08
2023-02-11T23:28:56.884Z,6.13
2023-02-11T23:31:29.946Z,6.08
2023-02-11T23:33:58.364Z,6.12
2023-02-11T23:36:26.595Z,6.01
2023-02-11T23:38:54.848Z,6.09
2023-02-11T23:41:26.058Z,6.06
2023-02-11T23:43:58.390Z,5.95
2023-02-11T23:46:28.566Z,6.15
2023-02-11T23:48:58.381Z,6.13
2023-02-11T23:51:26.788Z,6.22
2023-02-11T23:53:57.634Z,6.24
2023-02-11T23:56:28.428Z,6.22
2023-02-11T23:58:59.958Z,6.27
